createdAt,value
2023-01-17T00:00:25.005Z,76.67
2023-01-17T00:02:58.169Z,76.69
2023-01-17T00:05:47.883Z,76.70
2023-01-17T00:08:37.769Z,76.87
2023-01-17T00:11:10.086Z,76.72
2023-01-17T00:13:42.816Z,76.81
2023-01-17T00:16:15.748Z,76.98
2023-01-17T00:18:49.396Z,76.95
2023-01-17T00:21:39.143Z,77.41
2023-01-17T00:24:28.779Z,77.41
2023-01-17T00:27:12.074Z,77.23
2023-01-17T00:29:43.534Z,77.13
2023-01-17T00:32:15.013Z,77.06
2023-01-17T00:34:46.636Z,77.18
2023-01-17T00:37:17.764Z,77.43
2023-01-17T00:39:49.418Z,77.50
2023-01-17T00:42:20.585Z,77.45
2023-01-17T00:45:10.186Z,77.38
2023-01-17T00:48:01.577Z,77.30
2023-01-17T00:50:51.860Z,77.20
2023-01-17T00:53:41.725Z,77.32
2023-01-17T00:56:31.603Z,77.43
2023-01-17T00:59:21.979Z,77.40
2023-01-17T01:02:11.610Z,77.49
2023-01-17T01:05:01.889Z,77.87
2023-01-17T01:07:51.519Z,77.77
2023-01-17T01:10:40.932Z,77.66
2023-01-17T01:13:30.978Z,77.60
2023-01-17T01:16:23.930Z,77.87
2023-01-17T01:19:13.917Z,77.99
2023-01-17T01:22:04.283Z,77.99
2023-01-17T01:24:54.550Z,77.78
2023-01-17T01:27:44.631Z,77.81
2023-01-17T01:30:34.231Z,77.92
2023-01-17T01:33:20.054Z,78.25
2023-01-17T01:35:54.641Z,77.81
2023-01-17T01:38:26.145Z,77.58
2023-01-17T01:40:58.346Z,77.85
2023-01-17T01:43:51.211Z,77.91
2023-01-17T01:46:34.772Z,78.18
2023-01-17T01:49:21.745Z,77.85
2023-01-17T01:52:03.119Z,77.68
2023-01-17T01:54:44.751Z,77.63
2023-01-17T01:57:19.971Z,77.73
2023-01-17T01:59:55.149Z,77.69
2023-01-17T02:02:29.405Z,77.57
2023-01-17T02:05:02.508Z,77.71
2023-01-17T02:07:37.728Z,77.61
2023-01-17T02:10:10.464Z,77.59
2023-01-17T02:12:42.977Z,77.87
2023-01-17T02:15:15.044Z,77.84
2023-01-17T02:18:13.849Z,78.06
2023-01-17T02:21:08.419Z,77.98
2023-01-17T02:23:58.169Z,77.73
2023-01-17T02:26:45.453Z,78.00
2023-01-17T02:29:37.051Z,78.14
2023-01-17T02:32:30.157Z,77.83
2023-01-17T02:35:29.441Z,77.82
2023-01-17T02:38:13.823Z,77.82
2023-01-17T02:41:01.363Z,77.59
2023-01-17T02:43:36.165Z,77.80
2023-01-17T02:46:09.906Z,77.87
2023-01-17T02:48:43.012Z,78.02
2023-01-17T02:51:39.390Z,77.94
2023-01-17T02:54:23.769Z,78.05
2023-01-17T02:57:04.446Z,78.09
2023-01-17T02:59:48.188Z,77.92
2023-01-17T03:02:23.156Z,77.92
2023-01-17T03:05:13.253Z,77.68
2023-01-17T03:07:46.802Z,77.94
2023-01-17T03:10:21.198Z,77.76
2023-01-17T03:12:54.017Z,78.10
2023-01-17T03:15:26.195Z,77.64
2023-01-17T03:18:01.179Z,77.74
2023-01-17T03:20:33.508Z,77.72
2023-01-17T03:23:05.669Z,77.53
2023-01-17T03:25:37.792Z,77.57
2023-01-17T03:28:09.934Z,77.60
2023-01-17T03:30:42.262Z,77.67
2023-01-17T03:33:14.487Z,77.52
2023-01-17T03:35:48.146Z,77.35
2023-01-17T03:38:20.279Z,77.08
2023-01-17T03:40:53.050Z,76.92
2023-01-17T03:43:25.285Z,77.25
2023-01-17T03:46:09.202Z,77.25
2023-01-17T03:48:43.105Z,77.12
2023-01-17T03:51:16.125Z,76.70
2023-01-17T03:53:48.949Z,77.41
2023-01-17T03:56:21.713Z,77.09
2023-01-17T03:58:53.841Z,77.24
2023-01-17T04:01:26.448Z,77.08
2023-01-17T04:03:59.177Z,77.25
2023-01-17T04:06:31.285Z,77.13
2023-01-17T04:09:03.565Z,77.04
2023-01-17T04:11:36.300Z,77.27
2023-01-17T04:14:08.825Z,77.37
2023-01-17T04:16:42.012Z,76.98
2023-01-17T04:19:15.010Z,76.82
2023-01-17T04:21:47.289Z,76.86
2023-01-17T04:24:20.644Z,77.18
2023-01-17T04:26:53.080Z,77.17
2023-01-17T04:29:25.687Z,77.34
2023-01-17T04:31:57.971Z,77.44
2023-01-17T04:34:30.744Z,77.55
2023-01-17T04:37:03.928Z,77.48
2023-01-17T04:39:38.247Z,77.42
2023-01-17T04:42:11.055Z,77.51
2023-01-17T04:44:43.641Z,77.54
2023-01-17T04:47:16.111Z,77.62
2023-01-17T04:49:49.667Z,77.73
2023-01-17T04:52:22.852Z,77.65
2023-01-17T04:54:55.569Z,77.88
2023-01-17T04:57:28.086Z,77.97
2023-01-17T05:00:00.370Z,78.00
2023-01-17T05:02:34.675Z,78.23
2023-01-17T05:05:11.802Z,78.54
2023-01-17T05:07:44.016Z,78.52
2023-01-17T05:10:17.039Z,78.38
2023-01-17T05:12:57.060Z,78.54
2023-01-17T05:15:29.609Z,78.29
2023-01-17T05:18:01.861Z,78.33
2023-01-17T05:20:34.412Z,78.50
2023-01-17T05:23:07.306Z,78.55
2023-01-17T05:25:42.199Z,78.67
2023-01-17T05:28:15.211Z,78.51
2023-01-17T05:30:48.248Z,78.69
2023-01-17T05:33:21.079Z,78.63
2023-01-17T05:35:53.818Z,78.53
2023-01-17T05:38:26.220Z,78.64
2023-01-17T05:41:05.124Z,78.87
2023-01-17T05:43:38.026Z,78.91
2023-01-17T05:46:10.591Z,78.74
2023-01-17T05:48:42.860Z,78.89
2023-01-17T05:51:14.963Z,78.97
2023-01-17T05:53:49.642Z,79.07
2023-01-17T05:56:22.262Z,79.16
2023-01-17T05:58:54.683Z,79.14
2023-01-17T06:01:27.092Z,79.00
2023-01-17T06:03:59.312Z,78.97
2023-01-17T06:06:31.511Z,79.12
2023-01-17T06:09:03.678Z,79.07
2023-01-17T06:11:35.954Z,79.17
2023-01-17T06:14:09.205Z,79.12
2023-01-17T06:16:41.750Z,79.31
2023-01-17T06:19:14.557Z,79.41
2023-01-17T06:21:47.397Z,79.23
2023-01-17T06:24:20.033Z,79.18
2023-01-17T06:26:52.900Z,79.15
2023-01-17T06:29:25.322Z,79.11
2023-01-17T06:32:01.515Z,79.42
2023-01-17T06:34:32.402Z,79.41
2023-01-17T06:37:04.437Z,79.45
2023-01-17T06:39:36.912Z,79.05
2023-01-17T06:42:10.409Z,79.08
2023-01-17T06:44:42.979Z,79.16
2023-01-17T06:47:15.173Z,79.22
2023-01-17T06:49:48.301Z,79.42
2023-01-17T06:52:20.624Z,79.51
2023-01-17T06:54:53.341Z,79.61
2023-01-17T06:57:25.783Z,79.76
2023-01-17T06:59:57.915Z,79.76
2023-01-17T07:02:29.943Z,79.87
2023-01-17T07:05:02.702Z,79.81
2023-01-17T07:07:36.168Z,79.65
2023-01-17T07:10:09.098Z,79.76
2023-01-17T07:12:43.455Z,79.68
2023-01-17T07:15:16.067Z,79.77
2023-01-17T07:17:48.210Z,79.74
2023-01-17T07:20:20.712Z,79.85
2023-01-17T07:22:53.435Z,79.83
2023-01-17T07:25:27.722Z,79.89
2023-01-17T07:28:00.450Z,79.92
2023-01-17T07:30:32.686Z,80.01
2023-01-17T07:33:05.787Z,80.01
2023-01-17T07:35:38.825Z,79.99
2023-01-17T07:38:14.225Z,79.90
2023-01-17T07:40:47.316Z,79.84
2023-01-17T07:43:19.793Z,79.77
2023-01-17T07:45:53.672Z,79.89
2023-01-17T07:48:26.830Z,79.87
2023-01-17T07:51:00.320Z,79.92
2023-01-17T07:53:33.980Z,79.89
2023-01-17T07:56:08.778Z,79.71
2023-01-17T07:58:41.202Z,79.93
2023-01-17T08:01:16.012Z,80.08
2023-01-17T08:03:49.854Z,80.06
2023-01-17T08:06:23.776Z,80.05
2023-01-17T08:08:57.779Z,80.29
2023-01-17T08:11:30.668Z,79.78
2023-01-17T08:14:04.022Z,79.97
2023-01-17T08:16:38.350Z,80.01
2023-01-17T08:19:10.930Z,80.03
2023-01-17T08:21:43.117Z,80.21
2023-01-17T08:24:16.002Z,79.92
2023-01-17T08:26:48.467Z,79.95
2023-01-17T08:29:21.588Z,80.04
2023-01-17T08:31:55.544Z,80.10
2023-01-17T08:34:28.977Z,80.13
2023-01-17T08:37:01.550Z,80.19
2023-01-17T08:39:34.312Z,80.21
2023-01-17T08:42:07.879Z,80.38
2023-01-17T08:44:40.257Z,80.27
2023-01-17T08:47:12.505Z,80.39
2023-01-17T08:49:45.497Z,80.46
2023-01-17T08:52:17.914Z,80.58
2023-01-17T08:54:50.154Z,80.62
2023-01-17T08:57:27.612Z,80.68
2023-01-17T09:00:01.296Z,80.63
2023-01-17T09:02:36.087Z,80.61
2023-01-17T09:05:09.961Z,80.67
2023-01-17T09:07:42.663Z,80.74
2023-01-17T09:10:15.955Z,80.85
2023-01-17T09:12:48.122Z,80.98
2023-01-17T09:15:20.696Z,81.02
2023-01-17T09:17:54.318Z,81.08
2023-01-17T09:20:28.779Z,81.12
2023-01-17T09:23:01.564Z,81.12
2023-01-17T09:25:33.507Z,81.39
2023-01-17T09:28:06.326Z,81.04
2023-01-17T09:30:39.964Z,81.08
2023-01-17T09:33:11.976Z,81.07
2023-01-17T09:35:44.104Z,81.17
2023-01-17T09:38:17.502Z,81.33
2023-01-17T09:40:50.338Z,81.41
2023-01-17T09:43:41.041Z,81.36
2023-01-17T09:46:18.777Z,81.44
2023-01-17T09:49:00.336Z,81.44
2023-01-17T09:51:33.099Z,81.49
2023-01-17T09:54:05.594Z,81.36
2023-01-17T09:56:40.565Z,81.30
2023-01-17T09:59:21.827Z,81.30
2023-01-17T10:02:06.253Z,81.26
2023-01-17T10:04:44.880Z,81.21
2023-01-17T10:07:36.715Z,81.20
2023-01-17T10:10:30.345Z,81.21
2023-01-17T10:13:05.516Z,81.24
2023-01-17T10:15:43.574Z,81.33
2023-01-17T10:18:33.921Z,81.34
2023-01-17T10:21:31.181Z,81.33
2023-01-17T10:24:24.922Z,81.53
2023-01-17T10:26:58.785Z,81.41
2023-01-17T10:29:33.928Z,81.44
2023-01-17T10:32:07.551Z,81.49
2023-01-17T10:34:42.532Z,81.65
2023-01-17T10:37:41.658Z,81.72
2023-01-17T10:40:17.079Z,81.88
2023-01-17T10:42:55.227Z,81.91
2023-01-17T10:45:29.331Z,82.09
2023-01-17T10:48:16.207Z,82.17
2023-01-17T10:50:53.996Z,82.27
2023-01-17T10:53:41.280Z,82.29
2023-01-17T10:56:16.703Z,82.30
2023-01-17T10:58:50.480Z,82.40
2023-01-17T11:01:31.938Z,82.37
2023-01-17T11:04:05.316Z,82.42
2023-01-17T11:06:57.106Z,82.58
2023-01-17T11:09:13.463Z,82.58
2023-01-17T11:11:51.511Z,82.49
2023-01-17T11:14:27.060Z,82.65
2023-01-17T11:17:04.310Z,82.61
2023-01-17T11:19:39.023Z,82.70
2023-01-17T11:22:31.022Z,82.64
2023-01-17T11:25:04.015Z,82.90
2023-01-17T11:27:39.824Z,82.91
2023-01-17T11:30:23.212Z,82.76
2023-01-17T11:33:00.129Z,82.86
2023-01-17T11:35:38.704Z,83.16
2023-01-17T11:38:23.357Z,82.76
2023-01-17T11:40:57.083Z,82.91
2023-01-17T11:43:29.805Z,83.06
2023-01-17T11:46:19.686Z,83.12
2023-01-17T11:48:57.421Z,83.05
2023-01-17T11:51:35.218Z,83.16
2023-01-17T11:54:23.359Z,83.27
2023-01-17T11:57:06.191Z,83.23
2023-01-17T11:59:45.617Z,83.10
2023-01-17T12:02:35.977Z,83.18
2023-01-17T12:05:28.925Z,83.27
2023-01-17T12:08:15.906Z,83.22
2023-01-17T12:10:51.199Z,83.20
2023-01-17T12:14:02.657Z,83.12
2023-01-17T12:17:05.239Z,83.03
2023-01-17T12:19:41.437Z,83.11
2023-01-17T12:22:48.591Z,83.06
2023-01-17T12:25:29.485Z,83.19
2023-01-17T12:28:11.516Z,83.04
2023-01-17T12:30:49.567Z,83.16
2023-01-17T12:33:30.679Z,83.04
2023-01-17T12:36:13.177Z,83.04
2023-01-17T12:38:48.115Z,82.95
2023-01-17T12:41:31.751Z,82.94
2023-01-17T12:44:04.234Z,82.87
2023-01-17T12:46:44.187Z,82.88
2023-01-17T12:49:43.387Z,82.76
2023-01-17T12:52:33.041Z,82.68
2023-01-17T12:55:08.191Z,82.48
2023-01-17T12:57:46.106Z,82.58
2023-01-17T13:00:24.004Z,82.68
2023-01-17T13:03:10.839Z,82.47
2023-01-17T13:05:46.260Z,82.34
2023-01-17T13:08:26.929Z,82.40
2023-01-17T13:11:07.732Z,82.37
2023-01-17T13:13:41.455Z,82.17
2023-01-17T13:16:19.118Z,81.82
2023-01-17T13:18:52.990Z,81.75
2023-01-17T13:21:30.761Z,81.75
2023-01-17T13:24:08.935Z,82.05
2023-01-17T13:26:58.863Z,82.05
2023-01-17T13:29:53.033Z,81.71
2023-01-17T13:32:33.311Z,81.54
2023-01-17T13:35:14.692Z,81.22
2023-01-17T13:38:16.728Z,81.33
2023-01-17T13:41:10.035Z,81.33
2023-01-17T13:43:47.820Z,80.87
2023-01-17T13:46:21.155Z,81.02
2023-01-17T13:48:56.242Z,80.88
2023-01-17T13:51:31.223Z,80.65
2023-01-17T13:54:05.379Z,80.92
2023-01-17T13:56:37.922Z,80.81
2023-01-17T13:59:13.151Z,80.51
2023-01-17T14:01:48.207Z,80.30
2023-01-17T14:04:20.915Z,80.16
2023-01-17T14:06:56.859Z,79.80
2023-01-17T14:09:33.642Z,80.10
2023-01-17T14:12:11.587Z,79.71
2023-01-17T14:14:46.708Z,79.30
2023-01-17T14:17:28.324Z,79.63
2023-01-17T14:20:08.889Z,78.60
2023-01-17T14:22:44.887Z,78.83
2023-01-17T14:25:22.857Z,79.08
2023-01-17T14:27:58.061Z,79.08
2023-01-17T14:30:36.696Z,79.00
2023-01-17T14:33:24.231Z,78.42
2023-01-17T14:36:02.376Z,78.79
2023-01-17T14:38:36.176Z,78.96
2023-01-17T14:41:14.431Z,78.57
2023-01-17T14:43:49.256Z,78.45
2023-01-17T14:46:24.121Z,78.52
2023-01-17T14:49:26.576Z,78.76
2023-01-17T14:52:03.992Z,78.69
2023-01-17T14:54:36.917Z,78.38
2023-01-17T14:57:28.893Z,78.17
2023-01-17T15:00:14.003Z,78.19
2023-01-17T15:02:47.704Z,78.03
2023-01-17T15:05:22.437Z,77.93
2023-01-17T15:07:57.765Z,77.92
2023-01-17T15:10:33.184Z,78.10
2023-01-17T15:13:10.658Z,77.61
2023-01-17T15:15:44.717Z,77.64
2023-01-17T15:18:19.659Z,77.26
2023-01-17T15:21:03.706Z,77.00
2023-01-17T15:23:41.541Z,77.32
2023-01-17T15:26:16.984Z,76.88
2023-01-17T15:28:50.222Z,76.84
2023-01-17T15:31:28.055Z,76.98
2023-01-17T15:34:00.178Z,77.14
2023-01-17T15:36:34.486Z,77.04
2023-01-17T15:39:18.150Z,77.40
2023-01-17T15:41:53.659Z,76.22
2023-01-17T15:44:46.846Z,76.38
2023-01-17T15:47:07.965Z,75.53
2023-01-17T15:49:42.130Z,75.95
2023-01-17T15:52:17.117Z,76.62
2023-01-17T15:54:54.862Z,76.77
2023-01-17T15:57:39.025Z,76.88
2023-01-17T16:00:18.798Z,77.25
2023-01-17T16:03:00.711Z,77.13
2023-01-17T16:05:37.069Z,77.21
2023-01-17T16:08:12.287Z,76.86
2023-01-17T16:10:45.719Z,77.05
2023-01-17T16:13:18.124Z,76.53
2023-01-17T16:15:50.993Z,76.55
2023-01-17T16:18:26.297Z,76.68
2023-01-17T16:21:04.948Z,75.31
2023-01-17T16:23:37.177Z,75.89
2023-01-17T16:26:11.118Z,75.87
2023-01-17T16:28:43.860Z,74.52
2023-01-17T16:31:17.487Z,74.86
2023-01-17T16:33:51.435Z,73.99
2023-01-17T16:36:23.691Z,74.44
2023-01-17T16:38:55.953Z,73.43
2023-01-17T16:41:28.015Z,74.10
2023-01-17T16:44:06.106Z,74.65
2023-01-17T16:46:38.853Z,74.36
2023-01-17T16:49:10.875Z,74.37
2023-01-17T16:51:44.560Z,73.99
2023-01-17T16:54:16.877Z,74.16
2023-01-17T16:56:49.394Z,74.41
2023-01-17T16:59:21.744Z,73.36
2023-01-17T17:01:53.920Z,73.63
2023-01-17T17:04:26.050Z,73.68
2023-01-17T17:06:58.162Z,72.49
2023-01-17T17:09:30.440Z,72.52
2023-01-17T17:12:02.511Z,72.90
2023-01-17T17:14:34.747Z,72.35
2023-01-17T17:17:07.182Z,72.48
2023-01-17T17:19:40.279Z,72.76
2023-01-17T17:22:12.234Z,72.89
2023-01-17T17:24:44.229Z,72.73
2023-01-17T17:27:16.245Z,72.51
2023-01-17T17:29:48.772Z,72.60
2023-01-17T17:32:21.376Z,72.70
2023-01-17T17:34:53.523Z,72.73
2023-01-17T17:37:27.215Z,72.60
2023-01-17T17:39:59.665Z,72.22
2023-01-17T17:42:33.497Z,72.56
2023-01-17T17:45:05.978Z,72.34
2023-01-17T17:47:38.162Z,72.35
2023-01-17T17:50:13.072Z,72.28
2023-01-17T17:52:45.658Z,72.28
2023-01-17T17:55:19.197Z,72.75
2023-01-17T17:57:51.588Z,72.23
2023-01-17T18:00:24.115Z,72.60
2023-01-17T18:02:56.146Z,72.75
2023-01-17T18:05:28.152Z,72.60
2023-01-17T18:08:00.876Z,72.76
2023-01-17T18:10:32.862Z,73.12
2023-01-17T18:13:04.734Z,73.25
2023-01-17T18:15:36.719Z,73.20
2023-01-17T18:18:09.145Z,72.99
2023-01-17T18:20:41.329Z,73.09
2023-01-17T18:23:13.476Z,73.26
2023-01-17T18:25:45.655Z,73.63
2023-01-17T18:28:18.307Z,73.39
2023-01-17T18:30:50.601Z,73.48
2023-01-17T18:33:22.863Z,73.20
2023-01-17T18:35:59.355Z,73.30
2023-01-17T18:38:32.204Z,73.11
2023-01-17T18:41:21.044Z,72.85
2023-01-17T18:43:53.742Z,72.83
2023-01-17T18:46:27.488Z,72.90
2023-01-17T18:49:00.166Z,72.63
2023-01-17T18:51:34.640Z,72.53
2023-01-17T18:54:09.933Z,72.70
2023-01-17T18:56:42.639Z,72.31
2023-01-17T18:59:17.521Z,72.55
2023-01-17T19:01:50.633Z,72.81
2023-01-17T19:04:22.726Z,72.64
2023-01-17T19:06:55.830Z,72.65
2023-01-17T19:09:27.991Z,72.62
2023-01-17T19:12:00.232Z,72.25
2023-01-17T19:14:32.863Z,72.69
2023-01-17T19:17:05.411Z,72.37
2023-01-17T19:19:38.339Z,72.45
2023-01-17T19:22:10.373Z,72.45
2023-01-17T19:24:42.634Z,72.68
2023-01-17T19:27:14.824Z,72.49
2023-01-17T19:29:46.879Z,72.42
2023-01-17T19:32:19.145Z,72.56
2023-01-17T19:34:51.481Z,72.87
2023-01-17T19:37:23.549Z,72.99
2023-01-17T19:39:55.762Z,73.21
2023-01-17T19:42:28.785Z,73.47
2023-01-17T19:45:00.920Z,73.83
2023-01-17T19:47:34.085Z,73.64
2023-01-17T19:50:08.596Z,73.65
2023-01-17T19:52:42.292Z,73.62
2023-01-17T19:55:14.574Z,73.52
2023-01-17T19:57:46.856Z,73.35
2023-01-17T20:00:22.899Z,73.05
2023-01-17T20:02:55.081Z,72.99
2023-01-17T20:05:27.016Z,73.07
2023-01-17T20:07:59.310Z,73.10
2023-01-17T20:10:31.815Z,73.15
2023-01-17T20:13:04.846Z,73.03
2023-01-17T20:15:37.113Z,73.01
2023-01-17T20:18:09.391Z,73.11
2023-01-17T20:20:56.383Z,72.94
2023-01-17T20:23:16.203Z,73.13
2023-01-17T20:26:03.591Z,73.05
2023-01-17T20:28:37.999Z,72.96
2023-01-17T20:31:15.671Z,72.84
2023-01-17T20:33:50.530Z,72.57
2023-01-17T20:36:25.317Z,72.23
2023-01-17T20:38:58.124Z,71.99
2023-01-17T20:41:35.645Z,72.02
2023-01-17T20:44:10.305Z,72.32
2023-01-17T20:46:42.990Z,72.04
2023-01-17T20:49:18.937Z,72.01
2023-01-17T20:51:51.618Z,72.33
2023-01-17T20:54:24.102Z,72.24
2023-01-17T20:56:56.021Z,72.21
2023-01-17T20:59:28.151Z,72.37
2023-01-17T21:02:02.737Z,72.36
2023-01-17T21:04:35.051Z,72.45
2023-01-17T21:07:07.088Z,72.46
2023-01-17T21:09:39.294Z,72.05
2023-01-17T21:12:12.062Z,71.98
2023-01-17T21:14:45.378Z,72.02
2023-01-17T21:17:17.803Z,72.25
2023-01-17T21:19:49.809Z,71.82
2023-01-17T21:22:22.081Z,72.08
2023-01-17T21:24:54.468Z,72.06
2023-01-17T21:27:27.284Z,72.01
2023-01-17T21:29:59.713Z,71.91
2023-01-17T21:32:33.467Z,72.08
2023-01-17T21:35:07.964Z,72.03
2023-01-17T21:37:41.220Z,72.17
2023-01-17T21:40:14.605Z,71.82
2023-01-17T21:42:47.071Z,72.44
2023-01-17T21:45:20.553Z,72.86
2023-01-17T21:47:52.701Z,73.10
2023-01-17T21:50:33.087Z,73.45
2023-01-17T21:52:58.619Z,73.98
2023-01-17T21:55:48.817Z,74.19
2023-01-17T21:58:38.827Z,74.48
2023-01-17T22:01:18.046Z,74.66
2023-01-17T22:04:01.746Z,75.00
2023-01-17T22:06:35.478Z,74.77
2023-01-17T22:09:07.750Z,74.99
2023-01-17T22:11:39.921Z,75.19
2023-01-17T22:14:11.978Z,75.38
2023-01-17T22:16:44.074Z,75.45
2023-01-17T22:19:16.622Z,75.35
2023-01-17T22:21:49.401Z,74.45
2023-01-17T22:24:22.328Z,75.04
2023-01-17T22:26:54.891Z,74.93
2023-01-17T22:29:27.202Z,75.05
2023-01-17T22:31:59.611Z,75.24
2023-01-17T22:34:31.670Z,75.60
2023-01-17T22:37:06.085Z,75.62
2023-01-17T22:39:39.560Z,75.92
2023-01-17T22:42:13.438Z,75.70
2023-01-17T22:44:46.087Z,75.58
2023-01-17T22:47:18.810Z,75.60
2023-01-17T22:49:51.297Z,75.48
2023-01-17T22:52:24.105Z,75.53
2023-01-17T22:54:56.536Z,75.50
2023-01-17T22:57:28.782Z,75.43
2023-01-17T23:00:01.560Z,75.22
2023-01-17T23:02:34.127Z,75.03
2023-01-17T23:05:07.510Z,75.16
2023-01-17T23:07:41.476Z,75.26
2023-01-17T23:10:16.680Z,74.90
2023-01-17T23:12:49.587Z,74.92
2023-01-17T23:15:39.432Z,74.57
2023-01-17T23:18:29.351Z,75.03
2023-01-17T23:21:01.653Z,74.83
2023-01-17T23:23:34.085Z,74.71
2023-01-17T23:26:07.152Z,74.40
2023-01-17T23:28:39.285Z,74.70
2023-01-17T23:31:13.068Z,74.95
2023-01-17T23:33:48.936Z,74.84
2023-01-17T23:36:20.555Z,74.87
2023-01-17T23:38:52.787Z,75.14
2023-01-17T23:41:42.231Z,75.10
2023-01-17T23:44:15.541Z,74.95
2023-01-17T23:46:47.961Z,75.04
2023-01-17T23:49:20.365Z,74.86
2023-01-17T23:51:53.150Z,74.97
2023-01-17T23:54:25.603Z,75.29
2023-01-17T23:56:58.080Z,74.85
2023-01-17T23:59:30.488Z,75.17
